createdAt,value
2023-01-12T00:04:00.602Z,2.83
2023-01-12T00:08:18.134Z,2.74
2023-01-12T00:12:35.551Z,2.70
2023-01-12T00:16:53.057Z,2.68
2023-01-12T00:21:11.112Z,2.73
2023-01-12T00:25:28.599Z,2.81
2023-01-12T00:29:46.921Z,2.83
2023-01-12T00:34:04.366Z,2.85
2023-01-12T00:38:21.863Z,2.98
2023-01-12T00:42:58.162Z,2.99
2023-01-12T00:47:17.059Z,3.09
2023-01-12T00:51:34.640Z,3.15
2023-01-12T00:55:52.686Z,3.18
2023-01-12T01:00:10.977Z,3.18
2023-01-12T01:04:28.783Z,3.22
2023-01-12T01:08:46.277Z,3.36
2023-01-12T01:13:05.016Z,3.42
2023-01-12T01:17:22.536Z,3.57
2023-01-12T01:21:40.446Z,3.57
2023-01-12T01:26:03.963Z,3.63
2023-01-12T01:30:21.676Z,3.66
2023-01-12T01:34:39.357Z,3.66
2023-01-12T01:38:57.126Z,3.67
2023-01-12T01:43:16.913Z,3.67
2023-01-12T01:47:43.373Z,3.71
2023-01-12T01:52:11.247Z,3.75
2023-01-12T01:56:31.832Z,3.74
2023-01-12T02:00:49.763Z,3.78
2023-01-12T02:05:09.071Z,3.78
2023-01-12T02:09:28.702Z,3.80
2023-01-12T02:14:05.175Z,3.81
2023-01-12T02:18:45.667Z,3.84
2023-01-12T02:23:36.334Z,3.85
2023-01-12T02:28:19.731Z,3.87
2023-01-12T02:33:08.637Z,3.88
2023-01-12T02:37:45.940Z,3.94
2023-01-12T02:42:32.692Z,3.95
2023-01-12T02:46:52.325Z,3.97
2023-01-12T02:51:29.359Z,3.99
2023-01-12T02:55:47.877Z,3.97
2023-01-12T03:00:06.233Z,3.99
2023-01-12T03:04:24.907Z,3.99
2023-01-12T03:08:42.725Z,4.02
2023-01-12T03:13:07.808Z,4.02
2023-01-12T03:17:39.046Z,4.03
2023-01-12T03:22:11.927Z,4.03
2023-01-12T03:26:32.266Z,4.05
2023-01-12T03:30:57.457Z,4.06
2023-01-12T03:35:15.145Z,4.08
2023-01-12T03:39:59.546Z,4.06
2023-01-12T03:44:30.460Z,4.12
2023-01-12T03:49:13.755Z,4.12
2023-01-12T03:53:33.817Z,4.12
2023-01-12T03:57:54.048Z,4.13
2023-01-12T04:02:12.307Z,4.15
2023-01-12T04:06:29.966Z,4.16
2023-01-12T04:10:47.626Z,4.15
2023-01-12T04:15:06.279Z,4.16
2023-01-12T04:19:24.414Z,4.18
2023-01-12T04:23:41.971Z,4.19
2023-01-12T04:28:04.020Z,4.22
2023-01-12T04:32:21.927Z,4.18
2023-01-12T04:36:42.028Z,4.16
2023-01-12T04:40:59.659Z,4.20
2023-01-12T04:45:17.481Z,4.19
2023-01-12T04:49:35.312Z,4.18
2023-01-12T04:53:53.366Z,4.19
2023-01-12T04:58:11.056Z,4.19
2023-01-12T05:02:28.738Z,4.22
2023-01-12T05:06:46.013Z,4.22
2023-01-12T05:11:03.591Z,4.25
2023-01-12T05:15:22.302Z,4.25
2023-01-12T05:19:39.847Z,4.26
2023-01-12T05:23:57.460Z,4.27
2023-01-12T05:28:15.793Z,4.27
2023-01-12T05:32:38.570Z,4.27
2023-01-12T05:36:56.140Z,4.29
2023-01-12T05:41:14.859Z,4.32
2023-01-12T05:45:32.277Z,4.27
2023-01-12T05:49:49.950Z,4.30
2023-01-12T05:54:07.505Z,4.29
2023-01-12T05:58:25.906Z,4.30
2023-01-12T06:02:43.446Z,4.32
2023-01-12T06:07:01.286Z,4.29
2023-01-12T06:11:38.439Z,4.29
2023-01-12T06:16:05.746Z,4.30
2023-01-12T06:20:23.381Z,4.30
2023-01-12T06:24:41.173Z,4.29
2023-01-12T06:28:58.834Z,4.30
2023-01-12T06:33:16.615Z,4.32
2023-01-12T06:37:34.279Z,4.32
2023-01-12T06:42:10.732Z,4.32
2023-01-12T06:46:28.858Z,4.29
2023-01-12T06:50:46.553Z,4.27
2023-01-12T06:55:04.861Z,4.25
2023-01-12T06:59:22.364Z,4.25
2023-01-12T07:03:40.365Z,4.26
2023-01-12T07:08:00.729Z,4.22
2023-01-12T07:12:18.485Z,4.22
2023-01-12T07:16:37.599Z,4.23
2023-01-12T07:20:55.172Z,4.20
2023-01-12T07:25:12.678Z,4.27
2023-01-12T07:29:30.886Z,4.27
2023-01-12T07:33:53.171Z,4.25
2023-01-12T07:38:11.070Z,4.25
2023-01-12T07:42:28.830Z,4.25
2023-01-12T07:46:46.708Z,4.26
2023-01-12T07:51:04.458Z,4.27
2023-01-12T07:55:22.269Z,4.32
2023-01-12T07:59:40.047Z,4.37
2023-01-12T08:03:57.731Z,4.40
2023-01-12T08:08:15.436Z,4.45
2023-01-12T08:12:32.981Z,4.41
2023-01-12T08:16:51.246Z,4.46
2023-01-12T08:21:14.861Z,4.54
2023-01-12T08:25:38.871Z,4.56
2023-01-12T08:30:00.360Z,4.61
2023-01-12T08:34:18.053Z,4.54
2023-01-12T08:38:35.964Z,4.50
2023-01-12T08:42:53.424Z,4.64
2023-01-12T08:47:30.607Z,4.70
2023-01-12T08:51:48.225Z,4.77
2023-01-12T08:56:07.453Z,4.91
2023-01-12T09:00:25.211Z,5.01
2023-01-12T09:04:42.739Z,5.22
2023-01-12T09:09:08.487Z,5.33
2023-01-12T09:13:26.141Z,5.42
2023-01-12T09:17:45.935Z,5.59
2023-01-12T09:22:03.482Z,5.71
2023-01-12T09:26:31.703Z,6.44
2023-01-12T09:30:49.421Z,6.29
2023-01-12T09:35:07.888Z,6.30
2023-01-12T09:39:28.258Z,6.30
2023-01-12T09:44:05.703Z,6.30
2023-01-12T09:48:24.269Z,6.43
2023-01-12T09:53:06.077Z,6.43
2023-01-12T09:57:58.082Z,6.51
2023-01-12T10:02:16.206Z,6.83
2023-01-12T10:06:36.098Z,7.05
2023-01-12T10:11:29.010Z,7.19
2023-01-12T10:16:03.309Z,6.87
2023-01-12T10:20:42.566Z,6.74
2023-01-12T10:25:00.418Z,6.43
2023-01-12T10:29:18.002Z,6.22
2023-01-12T10:33:36.425Z,6.12
2023-01-12T10:37:55.847Z,5.95
2023-01-12T10:42:36.290Z,5.92
2023-01-12T10:47:17.263Z,6.01
2023-01-12T10:51:36.355Z,6.25
2023-01-12T10:55:55.716Z,6.43
2023-01-12T11:00:26.417Z,6.85
2023-01-12T11:04:52.813Z,6.77
2023-01-12T11:09:23.171Z,6.98
2023-01-12T11:13:41.002Z,7.08
2023-01-12T11:18:42.157Z,9.08
2023-01-12T11:23:04.046Z,7.78
2023-01-12T11:27:46.972Z,9.47
2023-01-12T11:32:17.200Z,9.43
2023-01-12T11:36:42.812Z,8.26
2023-01-12T11:41:00.846Z,8.12
2023-01-12T11:45:28.684Z,8.05
2023-01-12T11:50:18.676Z,7.77
2023-01-12T11:54:38.922Z,8.61
2023-01-12T11:59:32.771Z,7.87
2023-01-12T12:04:00.145Z,7.74
2023-01-12T12:08:22.865Z,8.30
2023-01-12T12:13:04.549Z,8.65
2023-01-12T12:17:45.258Z,7.57
2023-01-12T12:23:04.864Z,7.62
2023-01-12T12:27:37.947Z,7.84
2023-01-12T12:32:10.658Z,9.16
2023-01-12T12:36:39.502Z,11.78
2023-01-12T12:42:02.513Z,11.50
2023-01-12T12:46:40.761Z,11.36
2023-01-12T12:51:07.259Z,12.02
2023-01-12T12:55:25.579Z,13.83
2023-01-12T13:00:00.339Z,14.06
2023-01-12T13:04:43.360Z,14.85
2023-01-12T13:09:16.666Z,14.42
2023-01-12T13:13:37.595Z,13.15
2023-01-12T13:17:55.983Z,10.48
2023-01-12T13:22:32.558Z,9.99
2023-01-12T13:26:52.887Z,9.22
2023-01-12T13:31:31.726Z,8.67
2023-01-12T13:35:49.150Z,8.33
2023-01-12T13:40:19.986Z,8.05
2023-01-12T13:44:42.256Z,7.87
2023-01-12T13:49:01.078Z,7.75
2023-01-12T13:53:28.616Z,7.64
2023-01-12T13:57:57.461Z,7.54
2023-01-12T14:02:18.829Z,7.44
2023-01-12T14:07:40.345Z,7.29
2023-01-12T14:12:19.146Z,7.23
2023-01-12T14:17:04.701Z,7.01
2023-01-12T14:21:28.253Z,6.85
2023-01-12T14:26:02.525Z,6.54
2023-01-12T14:30:22.234Z,6.25
2023-01-12T14:34:47.131Z,5.97
2023-01-12T14:39:14.753Z,5.73
2023-01-12T14:43:53.604Z,5.81
2023-01-12T14:48:24.192Z,5.70
2023-01-12T14:52:45.354Z,5.51
2023-01-12T14:57:26.237Z,5.33
2023-01-12T15:02:07.799Z,5.16
2023-01-12T15:06:25.705Z,5.11
2023-01-12T15:10:44.545Z,4.85
2023-01-12T15:16:02.713Z,4.61
2023-01-12T15:20:39.217Z,4.08
2023-01-12T15:25:16.833Z,3.66
2023-01-12T15:29:34.739Z,3.74
2023-01-12T15:33:52.614Z,3.74
2023-01-12T15:38:13.802Z,3.98
2023-01-12T15:42:31.284Z,3.78
2023-01-12T15:46:49.068Z,3.87
2023-01-12T15:51:10.463Z,3.78
2023-01-12T15:55:31.699Z,3.77
2023-01-12T15:59:49.192Z,3.51
2023-01-12T16:04:40.978Z,3.70
2023-01-12T16:08:51.885Z,3.59
2023-01-12T16:13:12.240Z,3.15
2023-01-12T16:17:29.875Z,2.81
2023-01-12T16:21:48.023Z,2.53
2023-01-12T16:26:07.052Z,2.29
2023-01-12T16:30:25.169Z,1.80
2023-01-12T16:34:43.016Z,1.40
2023-01-12T16:39:00.542Z,1.18
2023-01-12T16:43:21.446Z,1.22
2023-01-12T16:47:38.952Z,1.22
2023-01-12T16:51:57.124Z,1.35
2023-01-12T16:56:16.681Z,1.36
2023-01-12T17:00:34.496Z,1.73
2023-01-12T17:04:52.661Z,1.40
2023-01-12T17:09:10.594Z,1.21
2023-01-12T17:13:39.199Z,1.40
2023-01-12T17:18:00.596Z,2.45
2023-01-12T17:22:18.868Z,2.30
2023-01-12T17:26:39.235Z,2.58
2023-01-12T17:30:58.267Z,2.85
2023-01-12T17:35:15.930Z,2.96
2023-01-12T17:39:35.162Z,2.92
2023-01-12T17:43:52.906Z,3.25
2023-01-12T17:48:12.319Z,3.47
2023-01-12T17:52:29.790Z,3.38
2023-01-12T17:56:47.909Z,3.50
2023-01-12T18:01:12.981Z,3.43
2023-01-12T18:05:31.538Z,3.19
2023-01-12T18:09:49.110Z,3.02
2023-01-12T18:14:08.928Z,2.85
2023-01-12T18:18:26.696Z,2.58
2023-01-12T18:22:45.018Z,2.13
2023-01-12T18:27:03.154Z,2.03
2023-01-12T18:31:24.224Z,1.88
2023-01-12T18:35:42.114Z,1.70
2023-01-12T18:39:59.615Z,1.43
2023-01-12T18:44:17.896Z,1.40
2023-01-12T18:48:35.632Z,1.16
2023-01-12T18:53:11.865Z,1.15
2023-01-12T18:57:32.857Z,0.94
2023-01-12T19:01:50.536Z,0.92
2023-01-12T19:06:38.559Z,0.73
2023-01-12T19:11:08.422Z,0.30
2023-01-12T19:15:44.906Z,0.11
2023-01-12T19:20:10.085Z,0.01
2023-01-12T19:24:46.877Z,-0.29
2023-01-12T19:29:04.380Z,-0.33
2023-01-12T19:33:23.380Z,-0.39
2023-01-12T19:37:46.058Z,-0.56
2023-01-12T19:42:22.872Z,-0.72
2023-01-12T19:46:40.570Z,-0.96
2023-01-12T19:51:10.295Z,-1.03
2023-01-12T19:55:28.253Z,-0.98
2023-01-12T19:59:48.556Z,-1.17
2023-01-12T20:04:06.087Z,-1.30
2023-01-12T20:08:25.534Z,-1.25
2023-01-12T20:12:43.414Z,-1.36
2023-01-12T20:17:00.948Z,-1.44
2023-01-12T20:21:18.743Z,-1.53
2023-01-12T20:25:36.448Z,-1.58
2023-01-12T20:29:54.268Z,-1.51
2023-01-12T20:34:13.462Z,-1.50
2023-01-12T20:38:31.570Z,-1.53
2023-01-12T20:42:49.088Z,-1.72
2023-01-12T20:47:06.997Z,-1.77
2023-01-12T20:51:24.779Z,-1.70
2023-01-12T20:55:50.786Z,-1.68
2023-01-12T21:00:10.465Z,-1.67
2023-01-12T21:04:28.093Z,-1.67
2023-01-12T21:08:47.343Z,-1.58
2023-01-12T21:13:06.103Z,-1.60
2023-01-12T21:17:23.667Z,-1.55
2023-01-12T21:21:41.387Z,-1.61
2023-01-12T21:25:59.521Z,-1.60
2023-01-12T21:30:17.687Z,-1.64
2023-01-12T21:34:42.361Z,-1.64
2023-01-12T21:39:00.022Z,-1.60
2023-01-12T21:43:18.548Z,-1.63
2023-01-12T21:47:35.981Z,-1.39
2023-01-12T21:51:53.576Z,-1.37
2023-01-12T21:56:13.333Z,-0.32
2023-01-12T22:00:31.036Z,0.22
2023-01-12T22:04:48.728Z,1.29
2023-01-12T22:09:06.223Z,1.56
2023-01-12T22:13:23.808Z,1.91
2023-01-12T22:17:41.956Z,1.88
2023-01-12T22:21:59.697Z,1.60
2023-01-12T22:26:18.816Z,1.61
2023-01-12T22:30:36.611Z,1.32
2023-01-12T22:34:58.681Z,1.49
2023-01-12T22:39:16.398Z,1.16
2023-01-12T22:43:40.556Z,1.60
2023-01-12T22:47:58.247Z,1.56
2023-01-12T22:52:15.927Z,2.12
2023-01-12T22:56:33.421Z,1.97
2023-01-12T23:00:54.158Z,2.20
2023-01-12T23:05:11.659Z,2.32
2023-01-12T23:09:29.255Z,2.36
2023-01-12T23:13:47.450Z,2.43
2023-01-12T23:18:06.904Z,2.54
2023-01-12T23:22:24.552Z,2.74
2023-01-12T23:26:42.109Z,2.92
2023-01-12T23:31:12.081Z,2.99
2023-01-12T23:35:35.561Z,3.09
2023-01-12T23:39:53.179Z,3.22
2023-01-12T23:44:11.077Z,3.44
2023-01-12T23:48:29.880Z,3.56
2023-01-12T23:52:50.490Z,3.74
2023-01-12T23:57:08.104Z,3.78
